sensor_id;sensor_type;location;lat;lon;timestamp;pressure;altitude;pressure_sealevel;temperature;humidity
43770;BME280;6597;52.218;9.882;2023-04-29T00:00:59;100176.56;;;12.02;100.00
43770;BME280;6597;52.218;9.882;2023-04-29T00:03:26;100183.13;;;11.94;100.00
43770;BME280;6597;52.218;9.882;2023-04-29T00:05:56;100182.75;;;11.84;100.00
43770;BME280;6597;52.218;9.882;2023-04-29T00:08:22;100182.13;;;11.79;100.00
43770;BME280;6597;52.218;9.882;2023-04-29T00:10:49;100178.19;;;11.69;100.00
43770;BME280;6597;52.218;9.882;2023-04-29T00:13:16;100172.16;;;11.67;100.00
43770;BME280;6597;52.218;9.882;2023-04-29T00:15:43;100174.16;;;11.62;100.00
43770;BME280;6597;52.218;9.882;2023-04-29T00:18:11;100176.00;;;11.60;100.00
43770;BME280;6597;52.218;9.882;2023-04-29T00:20:38;100173.31;;;11.61;100.00
43770;BME280;6597;52.218;9.882;2023-04-29T00:23:05;100183.03;;;11.59;100.00
43770;BME280;6597;52.218;9.882;2023-04-29T00:25:31;100187.59;;;11.56;100.00
43770;BME280;6597;52.218;9.882;2023-04-29T00:27:58;100191.94;;;11.57;100.00
43770;BME280;6597;52.218;9.882;2023-04-29T00:30:26;100184.19;;;11.53;100.00
43770;BME280;6597;52.218;9.882;2023-04-29T00:32:53;100193.78;;;11.54;100.00
43770;BME280;6597;52.218;9.882;2023-04-29T00:35:21;100191.31;;;11.51;100.00
43770;BME280;6597;52.218;9.882;2023-04-29T00:37:48;100197.34;;;11.53;100.00
43770;BME280;6597;52.218;9.882;2023-04-29T00:40:14;100191.16;;;11.54;100.00
43770;BME280;6597;52.218;9.882;2023-04-29T00:42:42;100196.34;;;11.56;100.00
43770;BME280;6597;52.218;9.882;2023-04-29T00:45:09;100193.72;;;11.56;100.00
43770;BME280;6597;52.218;9.882;2023-04-29T00:47:36;100201.66;;;11.54;100.00
43770;BME280;6597;52.218;9.882;2023-04-29T00:50:04;100199.91;;;11.55;100.00
43770;BME280;6597;52.218;9.882;2023-04-29T00:52:33;100209.47;;;11.56;100.00
43770;BME280;6597;52.218;9.882;2023-04-29T00:55:00;100211.25;;;11.56;100.00
43770;BME280;6597;52.218;9.882;2023-04-29T00:57:27;100203.28;;;11.57;100.00
43770;BME280;6597;52.218;9.882;2023-04-29T00:59:54;100213.97;;;11.54;100.00
43770;BME280;6597;52.218;9.882;2023-04-29T01:02:22;100216.59;;;11.54;100.00
43770;BME280;6597;52.218;9.882;2023-04-29T01:04:49;100217.59;;;11.51;100.00
43770;BME280;6597;52.218;9.882;2023-04-29T01:07:19;100216.66;;;11.52;100.00
43770;BME280;6597;52.218;9.882;2023-04-29T01:09:54;100216.59;;;11.54;100.00
43770;BME280;6597;52.218;9.882;2023-04-29T01:12:33;100220.16;;;11.53;100.00
43770;BME280;6597;52.218;9.882;2023-04-29T01:15:09;100219.22;;;11.54;100.00
43770;BME280;6597;52.218;9.882;2023-04-29T01:17:40;100223.63;;;11.53;100.00
43770;BME280;6597;52.218;9.882;2023-04-29T01:20:08;100223.63;;;11.53;100.00
43770;BME280;6597;52.218;9.882;2023-04-29T01:22:35;100222.84;;;11.51;100.00
43770;BME280;6597;52.218;9.882;2023-04-29T01:25:05;100224.78;;;11.48;100.00
43770;BME280;6597;52.218;9.882;2023-04-29T01:30:32;100228.41;;;11.45;100.00
43770;BME280;6597;52.218;9.882;2023-04-29T01:33:06;100238.97;;;11.44;100.00
43770;BME280;6597;52.218;9.882;2023-04-29T01:35:44;100240.06;;;11.40;100.00
43770;BME280;6597;52.218;9.882;2023-04-29T01:38:20;100242.81;;;11.37;100.00
43770;BME280;6597;52.218;9.882;2023-04-29T01:41:09;100245.38;;;11.38;100.00
43770;BME280;6597;52.218;9.882;2023-04-29T01:43:37;100237.50;;;11.38;100.00
43770;BME280;6597;52.218;9.882;2023-04-29T01:46:17;100241.03;;;11.37;100.00
43770;BME280;6597;52.218;9.882;2023-04-29T01:48:44;100252.47;;;11.36;100.00
43770;BME280;6597;52.218;9.882;2023-04-29T01:51:10;100247.94;;;11.40;100.00
43770;BME280;6597;52.218;9.882;2023-04-29T01:53:37;100247.19;;;11.36;100.00
43770;BME280;6597;52.218;9.882;2023-04-29T01:56:07;100246.28;;;11.37;100.00
43770;BME280;6597;52.218;9.882;2023-04-29T01:58:43;100252.28;;;11.41;100.00
43770;BME280;6597;52.218;9.882;2023-04-29T02:01:29;100259.41;;;11.37;100.00
43770;BME280;6597;52.218;9.882;2023-04-29T02:03:56;100252.53;;;11.35;100.00
43770;BME280;6597;52.218;9.882;2023-04-29T02:06:23;100253.53;;;11.32;100.00
43770;BME280;6597;52.218;9.882;2023-04-29T02:08:55;100264.97;;;11.31;100.00
43770;BME280;6597;52.218;9.882;2023-04-29T02:11:23;100258.94;;;11.29;100.00
43770;BME280;6597;52.218;9.882;2023-04-29T02:13:52;100265.25;;;11.25;100.00
43770;BME280;6597;52.218;9.882;2023-04-29T02:16:20;100271.50;;;11.22;100.00
43770;BME280;6597;52.218;9.882;2023-04-29T02:18:52;100275.13;;;11.20;100.00
43770;BME280;6597;52.218;9.882;2023-04-29T02:21:20;100282.34;;;11.15;100.00
43770;BME280;6597;52.218;9.882;2023-04-29T02:23:46;100281.72;;;11.10;100.00
43770;BME280;6597;52.218;9.882;2023-04-29T02:26:13;100281.78;;;11.08;100.00
43770;BME280;6597;52.218;9.882;2023-04-29T02:28:41;100288.13;;;11.03;100.00
43770;BME280;6597;52.218;9.882;2023-04-29T02:31:08;100290.91;;;11.00;100.00
43770;BME280;6597;52.218;9.882;2023-04-29T02:33:35;100286.72;;;10.96;100.00
43770;BME280;6597;52.218;9.882;2023-04-29T02:36:01;100295.31;;;10.99;100.00
43770;BME280;6597;52.218;9.882;2023-04-29T02:38:28;100290.13;;;10.98;100.00
43770;BME280;6597;52.218;9.882;2023-04-29T02:40:55;100290.25;;;10.95;100.00
43770;BME280;6597;52.218;9.882;2023-04-29T02:43:21;100295.56;;;10.93;100.00
43770;BME280;6597;52.218;9.882;2023-04-29T02:45:49;100306.88;;;10.95;100.00
43770;BME280;6597;52.218;9.882;2023-04-29T02:48:16;100307.84;;;10.93;100.00
43770;BME280;6597;52.218;9.882;2023-04-29T02:50:43;100302.88;;;10.86;100.00
43770;BME280;6597;52.218;9.882;2023-04-29T02:53:09;100310.09;;;10.81;100.00
43770;BME280;6597;52.218;9.882;2023-04-29T02:55:36;100309.19;;;10.82;100.00
43770;BME280;6597;52.218;9.882;2023-04-29T02:58:07;100303.00;;;10.83;100.00
43770;BME280;6597;52.218;9.882;2023-04-29T03:00:33;100311.81;;;10.82;100.00
43770;BME280;6597;52.218;9.882;2023-04-29T03:03:01;100306.56;;;10.82;100.00
43770;BME280;6597;52.218;9.882;2023-04-29T03:05:28;100312.94;;;10.77;100.00
43770;BME280;6597;52.218;9.882;2023-04-29T03:07:55;100323.38;;;10.78;100.00
43770;BME280;6597;52.218;9.882;2023-04-29T03:10:21;100318.25;;;10.75;100.00
43770;BME280;6597;52.218;9.882;2023-04-29T03:12:48;100319.22;;;10.73;100.00
43770;BME280;6597;52.218;9.882;2023-04-29T03:15:15;100327.28;;;10.68;100.00
43770;BME280;6597;52.218;9.882;2023-04-29T03:17:43;100320.38;;;10.66;100.00
43770;BME280;6597;52.218;9.882;2023-04-29T03:20:13;100320.84;;;10.55;100.00
43770;BME280;6597;52.218;9.882;2023-04-29T03:22:39;100322.75;;;10.51;100.00
43770;BME280;6597;52.218;9.882;2023-04-29T03:25:07;100319.47;;;10.46;100.00
43770;BME280;6597;52.218;9.882;2023-04-29T03:27:35;100326.72;;;10.40;100.00
43770;BME280;6597;52.218;9.882;2023-04-29T03:30:03;100324.09;;;10.40;100.00
43770;BME280;6597;52.218;9.882;2023-04-29T03:32:30;100326.13;;;10.33;100.00
43770;BME280;6597;52.218;9.882;2023-04-29T03:34:57;100320.09;;;10.31;100.00
43770;BME280;6597;52.218;9.882;2023-04-29T03:37:33;100334.97;;;10.31;100.00
43770;BME280;6597;52.218;9.882;2023-04-29T03:40:17;100331.50;;;10.30;100.00
43770;BME280;6597;52.218;9.882;2023-04-29T03:42:44;100326.44;;;10.25;100.00
43770;BME280;6597;52.218;9.882;2023-04-29T03:45:10;100328.28;;;10.23;100.00
43770;BME280;6597;52.218;9.882;2023-04-29T03:47:38;100332.03;;;10.16;100.00
43770;BME280;6597;52.218;9.882;2023-04-29T03:50:06;100335.63;;;10.14;100.00
43770;BME280;6597;52.218;9.882;2023-04-29T03:52:35;100336.75;;;10.08;100.00
43770;BME280;6597;52.218;9.882;2023-04-29T03:55:07;100344.94;;;9.99;100.00
43770;BME280;6597;52.218;9.882;2023-04-29T03:57:34;100347.75;;;9.94;100.00
43770;BME280;6597;52.218;9.882;2023-04-29T04:00:00;100347.75;;;9.94;100.00
43770;BME280;6597;52.218;9.882;2023-04-29T04:02:28;100354.88;;;9.91;100.00
43770;BME280;6597;52.218;9.882;2023-04-29T04:04:54;100354.22;;;9.86;100.00
43770;BME280;6597;52.218;9.882;2023-04-29T04:07:23;100363.09;;;9.82;100.00
43770;BME280;6597;52.218;9.882;2023-04-29T04:10:14;100373.78;;;9.77;100.00
43770;BME280;6597;52.218;9.882;2023-04-29T04:12:40;100371.81;;;9.82;100.00
43770;BME280;6597;52.218;9.882;2023-04-29T04:15:09;100372.84;;;9.78;100.00
43770;BME280;6597;52.218;9.882;2023-04-29T04:17:36;100384.31;;;9.76;100.00
43770;BME280;6597;52.218;9.882;2023-04-29T04:20:03;100401.84;;;9.74;100.00
43770;BME280;6597;52.218;9.882;2023-04-29T04:22:30;100392.19;;;9.76;100.00
43770;BME280;6597;52.218;9.882;2023-04-29T04:25:18;100403.59;;;9.73;100.00
43770;BME280;6597;52.218;9.882;2023-04-29T04:27:44;100404.41;;;9.75;100.00
43770;BME280;6597;52.218;9.882;2023-04-29T04:30:21;100407.84;;;9.77;100.00
43770;BME280;6597;52.218;9.882;2023-04-29T04:32:48;100412.25;;;9.77;100.00
43770;BME280;6597;52.218;9.882;2023-04-29T04:35:15;100423.41;;;9.82;100.00
43770;BME280;6597;52.218;9.882;2023-04-29T04:37:42;100419.94;;;9.81;100.00
43770;BME280;6597;52.218;9.882;2023-04-29T04:40:13;100418.28;;;9.79;100.00
43770;BME280;6597;52.218;9.882;2023-04-29T04:43:01;100428.75;;;9.79;100.00
43770;BME280;6597;52.218;9.882;2023-04-29T04:45:28;100433.09;;;9.80;100.00
43770;BME280;6597;52.218;9.882;2023-04-29T04:47:55;100437.47;;;9.79;100.00
43770;BME280;6597;52.218;9.882;2023-04-29T04:50:26;100433.09;;;9.80;100.00
43770;BME280;6597;52.218;9.882;2023-04-29T04:52:54;100434.19;;;9.73;100.00
43770;BME280;6597;52.218;9.882;2023-04-29T04:55:43;100447.38;;;9.71;100.00
43770;BME280;6597;52.218;9.882;2023-04-29T04:58:12;100441.06;;;9.77;100.00
43770;BME280;6597;52.218;9.882;2023-04-29T05:00:42;100454.13;;;9.78;100.00
43770;BME280;6597;52.218;9.882;2023-04-29T05:03:09;100454.06;;;9.80;100.00
43770;BME280;6597;52.218;9.882;2023-04-29T05:05:36;100463.63;;;9.81;100.00
43770;BME280;6597;52.218;9.882;2023-04-29T05:08:03;100469.72;;;9.81;100.00
43770;BME280;6597;52.218;9.882;2023-04-29T05:10:36;100466.09;;;9.85;100.00
43770;BME280;6597;52.218;9.882;2023-04-29T05:13:04;100474.81;;;9.86;100.00
43770;BME280;6597;52.218;9.882;2023-04-29T05:15:33;100481.69;;;9.88;100.00
43770;BME280;6597;52.218;9.882;2023-04-29T05:18:01;100481.75;;;9.87;100.00
43770;BME280;6597;52.218;9.882;2023-04-29T05:20:29;100487.97;;;9.84;100.00
43770;BME280;6597;52.218;9.882;2023-04-29T05:22:56;100482.72;;;9.84;100.00
43770;BME280;6597;52.218;9.882;2023-04-29T05:25:23;100489.06;;;9.79;100.00
43770;BME280;6597;52.218;9.882;2023-04-29T05:27:52;100490.75;;;9.80;100.00
43770;BME280;6597;52.218;9.882;2023-04-29T05:30:20;100504.00;;;9.75;100.00
43770;BME280;6597;52.218;9.882;2023-04-29T05:32:49;100507.53;;;9.74;100.00
43770;BME280;6597;52.218;9.882;2023-04-29T05:35:17;100507.53;;;9.74;100.00
43770;BME280;6597;52.218;9.882;2023-04-29T05:37:44;100505.94;;;9.70;100.00
43770;BME280;6597;52.218;9.882;2023-04-29T05:40:22;100508.19;;;9.56;100.00
43770;BME280;6597;52.218;9.882;2023-04-29T05:42:50;100518.63;;;9.57;100.00
43770;BME280;6597;52.218;9.882;2023-04-29T05:45:17;100524.84;;;9.55;100.00
43770;BME280;6597;52.218;9.882;2023-04-29T05:47:43;100530.78;;;9.60;100.00
43770;BME280;6597;52.218;9.882;2023-04-29T05:50:11;100529.97;;;9.58;100.00
43770;BME280;6597;52.218;9.882;2023-04-29T05:52:38;100530.88;;;9.57;100.00
43770;BME280;6597;52.218;9.882;2023-04-29T05:55:05;100524.88;;;9.53;100.00
43770;BME280;6597;52.218;9.882;2023-04-29T05:57:31;100533.34;;;9.61;100.00
43770;BME280;6597;52.218;9.882;2023-04-29T05:59:58;100535.09;;;9.61;100.00
43770;BME280;6597;52.218;9.882;2023-04-29T06:02:25;100536.22;;;9.54;100.00
43770;BME280;6597;52.218;9.882;2023-04-29T06:04:51;100548.47;;;9.53;100.00
43770;BME280;6597;52.218;9.882;2023-04-29T06:07:26;100553.81;;;9.50;100.00
43770;BME280;6597;52.218;9.882;2023-04-29T06:10:13;100562.66;;;9.48;100.00
43770;BME280;6597;52.218;9.882;2023-04-29T06:12:42;100553.13;;;9.45;100.00
43770;BME280;6597;52.218;9.882;2023-04-29T06:15:09;100561.91;;;9.44;100.00
43770;BME280;6597;52.218;9.882;2023-04-29T06:17:36;100567.03;;;9.47;100.00
43770;BME280;6597;52.218;9.882;2023-04-29T06:20:03;100574.78;;;9.50;100.00
43770;BME280;6597;52.218;9.882;2023-04-29T06:22:31;100579.16;;;9.50;100.00
43770;BME280;6597;52.218;9.882;2023-04-29T06:24:58;100586.22;;;9.48;100.00
43770;BME280;6597;52.218;9.882;2023-04-29T06:27:34;100593.13;;;9.50;100.00
43770;BME280;6597;52.218;9.882;2023-04-29T06:30:01;100588.84;;;9.48;100.00
43770;BME280;6597;52.218;9.882;2023-04-29T06:32:28;100590.66;;;9.46;100.00
43770;BME280;6597;52.218;9.882;2023-04-29T06:34:54;100587.19;;;9.45;100.00
43770;BME280;6597;52.218;9.882;2023-04-29T06:37:27;100597.50;;;9.50;100.00
43770;BME280;6597;52.218;9.882;2023-04-29T06:40:07;100607.09;;;9.51;100.00
43770;BME280;6597;52.218;9.882;2023-04-29T06:42:52;100609.53;;;9.55;100.00
43770;BME280;6597;52.218;9.882;2023-04-29T06:45:57;100616.44;;;9.58;100.00
43770;BME280;6597;52.218;9.882;2023-04-29T06:48:33;100617.41;;;9.55;100.00
43770;BME280;6597;52.218;9.882;2023-04-29T06:51:02;100620.88;;;9.56;100.00
43770;BME280;6597;52.218;9.882;2023-04-29T06:53:29;100624.09;;;9.64;100.00
43770;BME280;6597;52.218;9.882;2023-04-29T06:55:57;100635.13;;;9.74;100.00
43770;BME280;6597;52.218;9.882;2023-04-29T06:58:23;100638.47;;;9.79;100.00
43770;BME280;6597;52.218;9.882;2023-04-29T07:00:50;100652.44;;;9.79;100.00
43770;BME280;6597;52.218;9.882;2023-04-29T07:03:17;100656.63;;;9.85;100.00
43770;BME280;6597;52.218;9.882;2023-04-29T07:05:44;100659.25;;;9.85;100.00
43770;BME280;6597;52.218;9.882;2023-04-29T07:08:12;100659.25;;;9.85;100.00
43770;BME280;6597;52.218;9.882;2023-04-29T07:10:39;100665.28;;;9.87;100.00
43770;BME280;6597;52.218;9.882;2023-04-29T07:13:07;100668.91;;;9.83;100.00
43770;BME280;6597;52.218;9.882;2023-04-29T07:15:34;100681.13;;;9.84;100.00
43770;BME280;6597;52.218;9.882;2023-04-29T07:18:03;100691.56;;;9.85;100.00
43770;BME280;6597;52.218;9.882;2023-04-29T07:20:31;100706.44;;;9.85;100.00
43770;BME280;6597;52.218;9.882;2023-04-29T07:22:58;100705.63;;;9.83;100.00
43770;BME280;6597;52.218;9.882;2023-04-29T07:25:25;100709.22;;;9.80;100.00
43770;BME280;6597;52.218;9.882;2023-04-29T07:27:51;100711.78;;;9.82;100.00
43770;BME280;6597;52.218;9.882;2023-04-29T07:30:19;100720.34;;;9.87;100.00
43770;BME280;6597;52.218;9.882;2023-04-29T07:32:46;100725.34;;;9.94;100.00
43770;BME280;6597;52.218;9.882;2023-04-29T07:35:12;100732.09;;;10.02;100.00
43770;BME280;6597;52.218;9.882;2023-04-29T07:37:40;100728.31;;;10.10;100.00
43770;BME280;6597;52.218;9.882;2023-04-29T07:40:09;100737.28;;;10.29;100.00
43770;BME280;6597;52.218;9.882;2023-04-29T07:42:36;100731.53;;;10.45;100.00
43770;BME280;6597;52.218;9.882;2023-04-29T07:45:06;100742.72;;;10.50;100.00
43770;BME280;6597;52.218;9.882;2023-04-29T07:47:34;100733.78;;;10.55;100.00
43770;BME280;6597;52.218;9.882;2023-04-29T07:50:01;100750.91;;;10.66;100.00
43770;BME280;6597;52.218;9.882;2023-04-29T07:52:28;100750.50;;;10.78;100.00
43770;BME280;6597;52.218;9.882;2023-04-29T07:54:54;100749.91;;;10.93;100.00
43770;BME280;6597;52.218;9.882;2023-04-29T07:57:21;100751.69;;;11.16;100.00
43770;BME280;6597;52.218;9.882;2023-04-29T07:59:50;100754.75;;;11.50;100.00
43770;BME280;6597;52.218;9.882;2023-04-29T08:02:17;100753.72;;;11.78;100.00
43770;BME280;6597;52.218;9.882;2023-04-29T08:04:47;100754.50;;;11.80;100.00
43770;BME280;6597;52.218;9.882;2023-04-29T08:07:15;100762.09;;;11.64;100.00
43770;BME280;6597;52.218;9.882;2023-04-29T08:09:42;100764.78;;;11.63;100.00
43770;BME280;6597;52.218;9.882;2023-04-29T08:12:09;100768.88;;;11.70;100.00
43770;BME280;6597;52.218;9.882;2023-04-29T08:14:39;100770.44;;;11.75;100.00
43770;BME280;6597;52.218;9.882;2023-04-29T08:17:05;100770.88;;;11.87;100.00
43770;BME280;6597;52.218;9.882;2023-04-29T08:19:32;100778.22;;;12.00;99.36
43770;BME280;6597;52.218;9.882;2023-04-29T08:22:00;100778.53;;;12.14;96.91
43770;BME280;6597;52.218;9.882;2023-04-29T08:24:28;100778.78;;;12.29;97.10
43770;BME280;6597;52.218;9.882;2023-04-29T08:26:55;100767.31;;;12.72;94.12
43770;BME280;6597;52.218;9.882;2023-04-29T08:29:23;100780.66;;;12.88;91.10
43770;BME280;6597;52.218;9.882;2023-04-29T08:31:49;100781.44;;;12.90;89.33
43770;BME280;6597;52.218;9.882;2023-04-29T08:34:16;100779.78;;;13.07;89.95
43770;BME280;6597;52.218;9.882;2023-04-29T08:36:42;100790.63;;;13.20;84.70
43770;BME280;6597;52.218;9.882;2023-04-29T08:41:46;100797.06;;;13.52;84.18
43770;BME280;6597;52.218;9.882;2023-04-29T08:44:15;100801.28;;;13.56;85.03
43770;BME280;6597;52.218;9.882;2023-04-29T08:46:43;100811.84;;;13.75;85.43
43770;BME280;6597;52.218;9.882;2023-04-29T08:49:10;100803.53;;;14.01;83.83
43770;BME280;6597;52.218;9.882;2023-04-29T08:51:38;100802.75;;;13.99;78.75
43770;BME280;6597;52.218;9.882;2023-04-29T08:54:05;100809.31;;;13.91;78.70
43770;BME280;6597;52.218;9.882;2023-04-29T08:56:32;100813.22;;;14.01;80.12
43770;BME280;6597;52.218;9.882;2023-04-29T08:59:00;100814.28;;;13.97;75.86
43770;BME280;6597;52.218;9.882;2023-04-29T09:01:29;100823.78;;;14.01;77.30
43770;BME280;6597;52.218;9.882;2023-04-29T09:04:05;100825.84;;;13.94;76.88
43770;BME280;6597;52.218;9.882;2023-04-29T09:06:33;100829.56;;;14.09;77.71
43770;BME280;6597;52.218;9.882;2023-04-29T09:09:01;100822.56;;;14.08;75.76
43770;BME280;6597;52.218;9.882;2023-04-29T09:11:29;100828.41;;;13.96;75.55
43770;BME280;6597;52.218;9.882;2023-04-29T09:13:58;100821.28;;;13.98;76.62
43770;BME280;6597;52.218;9.882;2023-04-29T09:16:26;100836.22;;;14.16;78.74
43770;BME280;6597;52.218;9.882;2023-04-29T09:18:53;100834.22;;;14.21;77.37
43770;BME280;6597;52.218;9.882;2023-04-29T09:21:22;100828.13;;;14.02;76.19
43770;BME280;6597;52.218;9.882;2023-04-29T09:23:50;100831.81;;;13.98;75.53
43770;BME280;6597;52.218;9.882;2023-04-29T09:26:18;100841.03;;;13.89;77.72
43770;BME280;6597;52.218;9.882;2023-04-29T09:28:44;100851.59;;;13.89;76.35
43770;BME280;6597;52.218;9.882;2023-04-29T09:31:12;100853.09;;;13.95;74.74
43770;BME280;6597;52.218;9.882;2023-04-29T09:33:50;100841.81;;;13.91;76.35
43770;BME280;6597;52.218;9.882;2023-04-29T09:36:36;100856.59;;;13.95;74.98
43770;BME280;6597;52.218;9.882;2023-04-29T09:39:03;100857.25;;;13.82;75.59
43770;BME280;6597;52.218;9.882;2023-04-29T09:41:36;100856.09;;;13.87;74.46
43770;BME280;6597;52.218;9.882;2023-04-29T09:44:03;100853.31;;;13.90;75.09
43770;BME280;6597;52.218;9.882;2023-04-29T09:46:31;100852.59;;;14.06;74.00
43770;BME280;6597;52.218;9.882;2023-04-29T09:48:59;100860.06;;;14.15;72.93
43770;BME280;6597;52.218;9.882;2023-04-29T09:51:26;100864.03;;;14.23;72.75
43770;BME280;6597;52.218;9.882;2023-04-29T09:53:53;100855.47;;;14.37;73.85
43770;BME280;6597;52.218;9.882;2023-04-29T09:56:19;100850.47;;;14.50;72.02
43770;BME280;6597;52.218;9.882;2023-04-29T09:58:46;100863.66;;;14.50;71.61
43770;BME280;6597;52.218;9.882;2023-04-29T10:01:13;100859.16;;;14.52;72.86
43770;BME280;6597;52.218;9.882;2023-04-29T10:03:44;100862.19;;;14.61;73.37
43770;BME280;6597;52.218;9.882;2023-04-29T10:06:12;100859.34;;;14.66;71.48
43770;BME280;6597;52.218;9.882;2023-04-29T10:08:40;100866.25;;;14.69;72.12
43770;BME280;6597;52.218;9.882;2023-04-29T10:11:06;100866.94;;;14.72;72.07
43770;BME280;6597;52.218;9.882;2023-04-29T10:13:37;100870.75;;;14.84;71.76
43770;BME280;6597;52.218;9.882;2023-04-29T10:16:12;100869.13;;;14.81;70.36
43770;BME280;6597;52.218;9.882;2023-04-29T10:18:47;100867.47;;;14.61;69.72
43770;BME280;6597;52.218;9.882;2023-04-29T10:21:17;100871.31;;;14.37;71.19
43770;BME280;6597;52.218;9.882;2023-04-29T10:23:47;100871.41;;;14.17;71.17
43770;BME280;6597;52.218;9.882;2023-04-29T10:26:15;100877.28;;;14.05;73.62
43770;BME280;6597;52.218;9.882;2023-04-29T10:28:42;100883.59;;;14.19;74.35
43770;BME280;6597;52.218;9.882;2023-04-29T10:31:11;100888.72;;;14.41;74.47
43770;BME280;6597;52.218;9.882;2023-04-29T10:33:42;100881.84;;;14.56;73.09
43770;BME280;6597;52.218;9.882;2023-04-29T10:36:11;100883.19;;;14.65;73.32
43770;BME280;6597;52.218;9.882;2023-04-29T10:38:44;100883.44;;;14.41;73.21
43770;BME280;6597;52.218;9.882;2023-04-29T10:41:20;100890.16;;;14.29;73.41
43770;BME280;6597;52.218;9.882;2023-04-29T10:43:49;100889.09;;;14.15;72.11
43770;BME280;6597;52.218;9.882;2023-04-29T10:46:16;100895.75;;;14.05;73.38
43770;BME280;6597;52.218;9.882;2023-04-29T10:48:43;100895.81;;;13.84;73.90
43770;BME280;6597;52.218;9.882;2023-04-29T10:51:10;100899.59;;;13.79;74.49
43770;BME280;6597;52.218;9.882;2023-04-29T10:53:59;100890.69;;;13.81;73.64
43770;BME280;6597;52.218;9.882;2023-04-29T10:56:37;100902.59;;;13.90;73.80
43770;BME280;6597;52.218;9.882;2023-04-29T10:59:04;100898.88;;;13.94;72.89
43770;BME280;6597;52.218;9.882;2023-04-29T11:01:47;100906.31;;;14.05;72.83
43770;BME280;6597;52.218;9.882;2023-04-29T11:04:15;100901.00;;;14.23;72.82
43770;BME280;6597;52.218;9.882;2023-04-29T11:06:50;100909.06;;;14.39;71.99
43770;BME280;6597;52.218;9.882;2023-04-29T11:09:24;100898.84;;;14.50;69.23
43770;BME280;6597;52.218;9.882;2023-04-29T11:12:00;100900.53;;;14.70;68.09
43770;BME280;6597;52.218;9.882;2023-04-29T11:14:31;100900.53;;;14.70;68.61
43770;BME280;6597;52.218;9.882;2023-04-29T11:17:01;100897.66;;;14.75;68.90
43770;BME280;6597;52.218;9.882;2023-04-29T11:19:32;100902.31;;;14.87;68.99
43770;BME280;6597;52.218;9.882;2023-04-29T11:22:07;100898.13;;;15.00;69.25
43770;BME280;6597;52.218;9.882;2023-04-29T11:24:36;100890.66;;;15.08;67.83
43770;BME280;6597;52.218;9.882;2023-04-29T11:27:02;100878.81;;;15.15;68.27
43770;BME280;6597;52.218;9.882;2023-04-29T11:29:30;100899.44;;;14.91;66.75
43770;BME280;6597;52.218;9.882;2023-04-29T11:32:00;100899.78;;;14.49;66.61
43770;BME280;6597;52.218;9.882;2023-04-29T11:34:27;100908.28;;;14.37;66.17
43770;BME280;6597;52.218;9.882;2023-04-29T11:36:53;100906.84;;;14.30;65.86
43770;BME280;6597;52.218;9.882;2023-04-29T11:39:20;100915.91;;;14.24;66.17
43770;BME280;6597;52.218;9.882;2023-04-29T11:41:49;100922.72;;;14.11;68.09
43770;BME280;6597;52.218;9.882;2023-04-29T11:44:20;100912.88;;;14.15;67.33
43770;BME280;6597;52.218;9.882;2023-04-29T11:46:47;100921.78;;;14.12;67.29
43770;BME280;6597;52.218;9.882;2023-04-29T11:49:14;100930.41;;;14.16;67.47
43770;BME280;6597;52.218;9.882;2023-04-29T11:51:41;100925.56;;;14.25;68.53
43770;BME280;6597;52.218;9.882;2023-04-29T11:54:07;100923.19;;;14.38;68.00
43770;BME280;6597;52.218;9.882;2023-04-29T11:56:36;100919.22;;;14.48;66.25
43770;BME280;6597;52.218;9.882;2023-04-29T11:59:04;100920.53;;;14.57;65.73
43770;BME280;6597;52.218;9.882;2023-04-29T12:01:32;100919.56;;;14.77;65.99
43770;BME280;6597;52.218;9.882;2023-04-29T12:04:05;100925.00;;;14.91;63.80
43770;BME280;6597;52.218;9.882;2023-04-29T12:06:32;100920.28;;;14.98;61.65
43770;BME280;6597;52.218;9.882;2023-04-29T12:08:59;100923.31;;;15.07;62.64
43770;BME280;6597;52.218;9.882;2023-04-29T12:11:28;100916.44;;;15.20;61.95
43770;BME280;6597;52.218;9.882;2023-04-29T12:13:55;100918.25;;;15.20;60.10
43770;BME280;6597;52.218;9.882;2023-04-29T12:16:23;100924.25;;;15.06;59.19
43770;BME280;6597;52.218;9.882;2023-04-29T12:18:53;100920.34;;;15.13;59.08
43770;BME280;6597;52.218;9.882;2023-04-29T12:21:20;100925.41;;;15.35;59.34
43770;BME280;6597;52.218;9.882;2023-04-29T12:23:47;100924.50;;;15.52;58.58
43770;BME280;6597;52.218;9.882;2023-04-29T12:26:14;100921.09;;;15.67;57.54
43770;BME280;6597;52.218;9.882;2023-04-29T12:28:40;100933.22;;;15.71;57.19
43770;BME280;6597;52.218;9.882;2023-04-29T12:31:08;100928.78;;;15.72;57.10
43770;BME280;6597;52.218;9.882;2023-04-29T12:33:36;100929.34;;;15.61;56.44
43770;BME280;6597;52.218;9.882;2023-04-29T12:36:03;100926.97;;;15.55;58.06
43770;BME280;6597;52.218;9.882;2023-04-29T12:38:30;100927.75;;;15.57;57.27
43770;BME280;6597;52.218;9.882;2023-04-29T12:40:58;100934.63;;;15.44;57.13
43770;BME280;6597;52.218;9.882;2023-04-29T12:43:25;100937.13;;;15.47;58.90
43770;BME280;6597;52.218;9.882;2023-04-29T12:45:53;100940.13;;;15.56;59.73
43770;BME280;6597;52.218;9.882;2023-04-29T12:48:19;100937.06;;;15.66;58.17
43770;BME280;6597;52.218;9.882;2023-04-29T12:50:48;100942.09;;;15.70;57.85
43770;BME280;6597;52.218;9.882;2023-04-29T12:53:15;100940.56;;;15.66;58.97
43770;BME280;6597;52.218;9.882;2023-04-29T12:55:42;100942.72;;;15.41;57.45
43770;BME280;6597;52.218;9.882;2023-04-29T12:58:08;100954.50;;;15.18;59.54
43770;BME280;6597;52.218;9.882;2023-04-29T13:00:35;100949.06;;;15.04;60.50
43770;BME280;6597;52.218;9.882;2023-04-29T13:03:02;100946.34;;;15.05;62.41
43770;BME280;6597;52.218;9.882;2023-04-29T13:05:29;100946.63;;;15.16;62.15
43770;BME280;6597;52.218;9.882;2023-04-29T13:07:57;100955.81;;;15.26;60.65
43770;BME280;6597;52.218;9.882;2023-04-29T13:10:24;100944.53;;;15.40;60.09
43770;BME280;6597;52.218;9.882;2023-04-29T13:12:52;100941.31;;;15.51;59.50